Great Diamond Island, Maine
Current Conditions -  °F | °C
As of 10:51 PM on Saturday 25 Oct 2014 (Local Time) from KPWM Reporting Station
Light Rain Light Rain  
Wind Chill: 54°   Ceiling: 10000
Heat Index: 54°   Visibility: 10mi
Dew Point: 45°   Wind: 6mph
Humidity: 72%   Direction: 240°WSW
Pressure: 29.48"   Gusts: NA
Location:  43.6801°N, 70.1969°W
Report Text: KPWM 260251Z 24005KT 10SM -RA SCT075 OVC100 12/07 A2948 RMK AO2 RAB15 SLP984 P0000 60000 T01220072 56018
Loading
Personal Weather Stations






























Interactive Weather Map
Tropical Storm Tracking
New forecast layout! Learn more

10-Day Weather Forecast

Advertisements
Track Severe Weather on mobile